createdAt,value
2022-12-24T00:05:32.284Z,-1.6
2022-12-24T00:11:10.160Z,-1.7
2022-12-24T00:16:48.992Z,-1.8
2022-12-24T00:22:13.046Z,-1.9
2022-12-24T00:27:36.114Z,-2
2022-12-24T00:32:59.700Z,-2.1
2022-12-24T00:38:44.464Z,-2.2
2022-12-24T00:44:22.088Z,-2.3
2022-12-24T00:50:04.421Z,-2.4
2022-12-24T00:55:42.048Z,-2.4
2022-12-24T01:01:20.118Z,-2.6
2022-12-24T01:06:44.623Z,-2.6
2022-12-24T01:12:22.245Z,-2.7
2022-12-24T01:18:00.778Z,-2.8
2022-12-24T01:23:38.642Z,-2.8
2022-12-24T01:29:16.494Z,-2.9
2022-12-24T01:34:55.467Z,-3
2022-12-24T01:39:47.511Z,-3
2022-12-24T01:45:14.689Z,-3.1
2022-12-24T01:50:37.819Z,-3.2
2022-12-24T01:56:00.115Z,-3.3
2022-12-24T02:01:38.271Z,-3.4
2022-12-24T02:07:17.724Z,-3.4
2022-12-24T02:12:55.828Z,-3.5
2022-12-24T02:18:03.541Z,-3.6
2022-12-24T02:23:26.031Z,-3.6
2022-12-24T02:29:04.378Z,-3.7
2022-12-24T02:39:48.405Z,-3.8
2022-12-24T02:45:52.461Z,-3.9
2022-12-24T02:51:33.637Z,-3.9
2022-12-24T02:57:11.315Z,-4.1
2022-12-24T03:02:35.509Z,-4.1
2022-12-24T03:07:42.398Z,-4.3
2022-12-24T03:13:19.857Z,-4.3
2022-12-24T03:18:43.381Z,-4.4
2022-12-24T03:24:21.490Z,-4.4
2022-12-24T03:29:59.499Z,-4.5
2022-12-24T03:35:22.278Z,-4.5
2022-12-24T03:41:00.003Z,-4.5
2022-12-24T03:46:38.306Z,-4.6
2022-12-24T03:52:16.076Z,-4.6
2022-12-24T03:57:53.543Z,-4.6
2022-12-24T04:03:16.224Z,-4.5
2022-12-24T04:08:39.521Z,-4.5
2022-12-24T04:14:18.695Z,-4.4
2022-12-24T04:19:57.046Z,-4.4
2022-12-24T04:25:35.283Z,-4.4
2022-12-24T04:36:35.877Z,-4.4
2022-12-24T04:42:02.437Z,-4.3
2022-12-24T04:47:10.126Z,-4.3
2022-12-24T04:52:48.365Z,-4.3
2022-12-24T04:57:55.147Z,-4.3
2022-12-24T05:03:49.636Z,-4.3
2022-12-24T05:09:42.628Z,-4.3
2022-12-24T05:15:28.560Z,-4.4
2022-12-24T05:21:06.135Z,-4.4
2022-12-24T05:26:44.087Z,-4.4
2022-12-24T05:32:07.710Z,-4.4
2022-12-24T05:37:30.961Z,-4.4
2022-12-24T05:43:13.536Z,-4.4
2022-12-24T05:48:38.127Z,-4.3
2022-12-24T05:54:17.218Z,-4.3
2022-12-24T05:59:39.746Z,-4.3
2022-12-24T06:05:23.855Z,-4.2
2022-12-24T06:10:46.716Z,-4.1
2022-12-24T06:16:30.422Z,-4.1
2022-12-24T06:22:09.049Z,-3.9
2022-12-24T06:27:31.682Z,-3.9
2022-12-24T06:33:18.374Z,-3.8
2022-12-24T06:38:56.709Z,-3.7
2022-12-24T06:44:34.944Z,-3.6
2022-12-24T06:50:13.322Z,-3.4
2022-12-24T06:55:51.853Z,-3.3
2022-12-24T07:01:20.017Z,-2.9
2022-12-24T07:06:59.379Z,-1.6
2022-12-24T07:12:38.896Z,-0.7
2022-12-24T07:18:24.679Z,0.1
2022-12-24T07:24:03.763Z,0.5
2022-12-24T07:29:42.057Z,0.9
2022-12-24T07:35:34.882Z,1.5
2022-12-24T07:41:16.462Z,2.4
2022-12-24T07:47:02.429Z,3.4
2022-12-24T07:52:40.634Z,4.7
2022-12-24T07:58:19.561Z,6.8
2022-12-24T08:04:04.122Z,11.1
2022-12-24T08:09:42.608Z,13.9
2022-12-24T08:15:20.358Z,14.9
2022-12-24T08:20:59.262Z,15.6
2022-12-24T08:26:37.247Z,15.9
2022-12-24T08:32:22.561Z,15.9
2022-12-24T08:38:00.388Z,15.7
2022-12-24T08:43:39.348Z,15.5
2022-12-24T08:49:22.675Z,15.3
2022-12-24T08:55:00.810Z,15.1
2022-12-24T09:00:44.054Z,15
2022-12-24T09:06:29.342Z,15.1
2022-12-24T09:12:12.308Z,15.6
2022-12-24T09:17:56.341Z,16.3
2022-12-24T09:34:30.119Z,17.4
2022-12-24T09:40:08.603Z,17.6
2022-12-24T09:45:36.305Z,17.9
2022-12-24T09:51:18.228Z,19
2022-12-24T09:56:41.329Z,20.6
2022-12-24T10:02:04.723Z,21
2022-12-24T10:07:44.055Z,21.1
2022-12-24T10:18:50.465Z,21.2
2022-12-24T10:24:28.825Z,22
2022-12-24T10:30:15.180Z,23.4
2022-12-24T10:35:55.103Z,23.8
2022-12-24T10:41:33.181Z,23.5
2022-12-24T10:47:06.360Z,23
2022-12-24T10:52:48.411Z,22.5
2022-12-24T10:58:26.856Z,22
2022-12-24T11:04:08.600Z,21.5
2022-12-24T11:09:34.557Z,20.9
2022-12-24T11:15:53.493Z,20.5
2022-12-24T11:21:39.080Z,20.6
2022-12-24T11:27:24.668Z,21.4
2022-12-24T11:33:08.284Z,24.3
2022-12-24T11:38:46.472Z,28.4
2022-12-24T11:44:26.266Z,34.4
2022-12-24T11:50:17.991Z,30.9
2022-12-24T11:56:06.533Z,29.8
2022-12-24T12:01:53.259Z,29.3
2022-12-24T12:07:16.173Z,29.1
2022-12-24T12:12:53.406Z,29.3
2022-12-24T12:18:36.593Z,29.6
2022-12-24T12:24:19.616Z,28.9
2022-12-24T12:29:58.228Z,35.1
2022-12-24T12:35:44.103Z,32.8
2022-12-24T12:41:29.166Z,31.6
2022-12-24T12:46:57.359Z,30.8
2022-12-24T12:52:43.895Z,29.8
2022-12-24T12:58:25.989Z,28.9
2022-12-24T13:09:39.308Z,26.8
2022-12-24T13:15:21.853Z,25.6
2022-12-24T13:21:06.019Z,24.5
2022-12-24T13:26:51.456Z,23.4
2022-12-24T13:32:30.679Z,22.3
2022-12-24T13:38:12.825Z,21.3
2022-12-24T13:44:13.177Z,20.3
2022-12-24T13:49:35.767Z,19.4
2022-12-24T13:55:17.630Z,18.5
2022-12-24T14:01:02.615Z,17.6
2022-12-24T14:06:48.723Z,16.8
2022-12-24T14:12:16.812Z,16.1
2022-12-24T14:17:55.589Z,15.3
2022-12-24T14:23:35.343Z,14.7
2022-12-24T14:29:14.194Z,14
2022-12-24T14:34:52.686Z,13.3
2022-12-24T14:40:15.761Z,12.8
2022-12-24T14:45:58.387Z,12.1
2022-12-24T14:51:36.703Z,11.5
2022-12-24T15:04:06.540Z,10.4
2022-12-24T15:09:49.561Z,10.1
2022-12-24T15:15:27.899Z,9.8
2022-12-24T15:20:41.533Z,9.4
2022-12-24T15:26:09.527Z,9.2
2022-12-24T15:31:55.421Z,8.9
2022-12-24T15:37:33.496Z,8.8
2022-12-24T15:42:56.313Z,8.6
2022-12-24T15:48:05.297Z,8.4
2022-12-24T15:58:50.563Z,8
2022-12-24T16:04:00.309Z,7.9
2022-12-24T16:09:23.170Z,7.8
2022-12-24T16:14:37.566Z,7.6
2022-12-24T16:20:18.709Z,7.5
2022-12-24T16:25:57.252Z,7.4
2022-12-24T16:31:39.657Z,7.3
2022-12-24T16:37:17.508Z,7.2
2022-12-24T16:42:46.958Z,7.1
2022-12-24T16:48:28.293Z,7.1
2022-12-24T16:54:12.342Z,7
2022-12-24T16:59:19.881Z,6.9
